sensor_id;sensor_type;location;lat;lon;timestamp;pressure;altitude;pressure_sealevel;temperature;humidity
84382;BME280;74572;51.834;5.820;2024-01-30T00:02:15;102685.66;;;7.41;79.29
84382;BME280;74572;51.834;5.820;2024-01-30T00:04:41;102683.44;;;7.44;79.64
84382;BME280;74572;51.834;5.820;2024-01-30T00:07:06;102682.38;;;7.42;79.60
84382;BME280;74572;51.834;5.820;2024-01-30T00:09:32;102681.94;;;7.37;79.68
84382;BME280;74572;51.834;5.820;2024-01-30T00:11:59;102684.47;;;7.37;79.38
84382;BME280;74572;51.834;5.820;2024-01-30T00:14:24;102684.31;;;7.36;79.73
84382;BME280;74572;51.834;5.820;2024-01-30T00:16:50;102685.34;;;7.38;79.74
84382;BME280;74572;51.834;5.820;2024-01-30T00:19:17;102684.47;;;7.37;79.38
84382;BME280;74572;51.834;5.820;2024-01-30T00:21:42;102690.56;;;7.39;79.52
84382;BME280;74572;51.834;5.820;2024-01-30T00:24:08;102686.25;;;7.38;79.91
84382;BME280;74572;51.834;5.820;2024-01-30T00:26:34;102682.97;;;7.39;79.64
84382;BME280;74572;51.834;5.820;2024-01-30T00:28:59;102684.63;;;7.39;79.88
84382;BME280;74572;51.834;5.820;2024-01-30T00:31:25;102686.25;;;7.38;79.89
84382;BME280;74572;51.834;5.820;2024-01-30T00:33:50;102682.97;;;7.39;79.55
84382;BME280;74572;51.834;5.820;2024-01-30T00:36:16;102679.56;;;7.39;79.88
84382;BME280;74572;51.834;5.820;2024-01-30T00:38:42;102678.22;;;7.42;79.61
84382;BME280;74572;51.834;5.820;2024-01-30T00:41:08;102669.56;;;7.40;79.65
84382;BME280;74572;51.834;5.820;2024-01-30T00:43:33;102673.59;;;7.38;79.81
84382;BME280;74572;51.834;5.820;2024-01-30T00:45:59;102663.66;;;7.31;79.50
84382;BME280;74572;51.834;5.820;2024-01-30T00:48:25;102673.00;;;7.32;80.01
84382;BME280;74572;51.834;5.820;2024-01-30T00:50:51;102667.19;;;7.33;79.60
84382;BME280;74572;51.834;5.820;2024-01-30T00:53:17;102671.06;;;7.38;79.90
84382;BME280;74572;51.834;5.820;2024-01-30T00:55:43;102666.00;;;7.38;79.67
84382;BME280;74572;51.834;5.820;2024-01-30T00:58:08;102661.22;;;7.41;79.59
84382;BME280;74572;51.834;5.820;2024-01-30T01:00:34;102669.56;;;7.40;79.63
84382;BME280;74572;51.834;5.820;2024-01-30T01:03:00;102660.19;;;7.39;79.63
84382;BME280;74572;51.834;5.820;2024-01-30T01:05:25;102660.78;;;7.45;79.29
84382;BME280;74572;51.834;5.820;2024-01-30T01:07:51;102666.59;;;7.44;79.14
84382;BME280;74572;51.834;5.820;2024-01-30T01:10:17;102666.91;;;7.47;79.29
84382;BME280;74572;51.834;5.820;2024-01-30T01:12:43;102661.09;;;7.48;79.40
84382;BME280;74572;51.834;5.820;2024-01-30T01:15:09;102659.75;;;7.43;79.19
84382;BME280;74572;51.834;5.820;2024-01-30T01:17:38;102654.97;;;7.46;79.34
84382;BME280;74572;51.834;5.820;2024-01-30T01:20:05;102656.75;;;7.47;79.08
84382;BME280;74572;51.834;5.820;2024-01-30T01:22:33;102656.16;;;7.50;79.39
84382;BME280;74572;51.834;5.820;2024-01-30T01:24:59;102650.22;;;7.49;78.98
84382;BME280;74572;51.834;5.820;2024-01-30T01:27:26;102649.72;;;7.53;79.07
84382;BME280;74572;51.834;5.820;2024-01-30T01:29:52;102652.75;;;7.49;78.96
84382;BME280;74572;51.834;5.820;2024-01-30T01:32:18;102654.69;;;7.43;79.34
84382;BME280;74572;51.834;5.820;2024-01-30T01:34:43;102645.75;;;7.47;79.20
84382;BME280;74572;51.834;5.820;2024-01-30T01:37:09;102642.31;;;7.46;79.08
84382;BME280;74572;51.834;5.820;2024-01-30T01:39:34;102640.69;;;7.38;79.10
84382;BME280;74572;51.834;5.820;2024-01-30T01:42:00;102635.16;;;7.42;79.40
84382;BME280;74572;51.834;5.820;2024-01-30T01:44:27;102640.22;;;7.42;78.89
84382;BME280;74572;51.834;5.820;2024-01-30T01:46:54;102638.31;;;7.40;78.81
84382;BME280;74572;51.834;5.820;2024-01-30T01:49:29;102643.22;;;7.38;78.85
84382;BME280;74572;51.834;5.820;2024-01-30T01:51:57;102633.84;;;7.37;79.17
84382;BME280;74572;51.834;5.820;2024-01-30T01:54:24;102634.13;;;7.40;78.95
84382;BME280;74572;51.834;5.820;2024-01-30T01:56:52;102626.84;;;7.43;78.88
84382;BME280;74572;51.834;5.820;2024-01-30T01:59:20;102634.69;;;7.55;78.50
84382;BME280;74572;51.834;5.820;2024-01-30T02:01:46;102635.28;;;7.52;78.44
84382;BME280;74572;51.834;5.820;2024-01-30T02:04:14;102623.38;;;7.51;78.64
84382;BME280;74572;51.834;5.820;2024-01-30T02:06:40;102620.09;;;7.52;78.62
84382;BME280;74572;51.834;5.820;2024-01-30T02:09:07;102620.66;;;7.58;78.41
84382;BME280;74572;51.834;5.820;2024-01-30T02:11:36;102630.50;;;7.55;78.35
84382;BME280;74572;51.834;5.820;2024-01-30T02:14:05;102622.63;;;7.52;78.20
84382;BME280;74572;51.834;5.820;2024-01-30T02:16:31;102631.41;;;7.56;78.11
84382;BME280;74572;51.834;5.820;2024-01-30T02:18:56;102630.69;;;7.48;78.28
84382;BME280;74572;51.834;5.820;2024-01-30T02:21:22;102629.66;;;7.46;78.39
84382;BME280;74572;51.834;5.820;2024-01-30T02:23:48;102627.13;;;7.46;78.53
84382;BME280;74572;51.834;5.820;2024-01-30T02:26:14;102622.97;;;7.38;78.10
84382;BME280;74572;51.834;5.820;2024-01-30T02:28:39;102620.72;;;7.41;78.47
84382;BME280;74572;51.834;5.820;2024-01-30T02:31:08;102625.19;;;7.44;78.47
84382;BME280;74572;51.834;5.820;2024-01-30T02:33:33;102617.28;;;7.49;78.34
84382;BME280;74572;51.834;5.820;2024-01-30T02:35:59;102624.75;;;7.48;78.34
84382;BME280;74572;51.834;5.820;2024-01-30T02:38:25;102611.78;;;7.45;78.20
84382;BME280;74572;51.834;5.820;2024-01-30T02:40:52;102607.63;;;7.45;77.92
84382;BME280;74572;51.834;5.820;2024-01-30T02:43:17;102612.09;;;7.48;78.12
84382;BME280;74572;51.834;5.820;2024-01-30T02:45:42;102609.09;;;7.43;77.85
84382;BME280;74572;51.834;5.820;2024-01-30T02:48:08;102609.72;;;7.41;77.84
84382;BME280;74572;51.834;5.820;2024-01-30T02:50:33;102600.47;;;7.41;78.00
84382;BME280;74572;51.834;5.820;2024-01-30T02:52:59;102603.31;;;7.44;78.31
84382;BME280;74572;51.834;5.820;2024-01-30T02:55:25;102598.97;;;7.43;77.90
84382;BME280;74572;51.834;5.820;2024-01-30T02:57:50;102597.19;;;7.42;78.28
84382;BME280;74572;51.834;5.820;2024-01-30T03:00:16;102601.38;;;7.42;77.80
84382;BME280;74572;51.834;5.820;2024-01-30T03:02:42;102601.06;;;7.39;77.61
84382;BME280;74572;51.834;5.820;2024-01-30T03:05:08;102601.97;;;7.39;77.87
84382;BME280;74572;51.834;5.820;2024-01-30T03:07:34;102600.19;;;7.38;78.11
84382;BME280;74572;51.834;5.820;2024-01-30T03:09:59;102591.53;;;7.36;78.39
84382;BME280;74572;51.834;5.820;2024-01-30T03:12:25;102591.69;;;7.38;78.06
84382;BME280;74572;51.834;5.820;2024-01-30T03:14:50;102590.06;;;7.38;78.36
84382;BME280;74572;51.834;5.820;2024-01-30T03:17:17;102584.69;;;7.35;78.28
84382;BME280;74572;51.834;5.820;2024-01-30T03:19:42;102585.28;;;7.33;78.18
84382;BME280;74572;51.834;5.820;2024-01-30T03:22:08;102589.47;;;7.32;78.51
84382;BME280;74572;51.834;5.820;2024-01-30T03:24:33;102586.94;;;7.32;78.12
84382;BME280;74572;51.834;5.820;2024-01-30T03:26:59;102585.03;;;7.30;78.19
84382;BME280;74572;51.834;5.820;2024-01-30T03:29:24;102570.25;;;7.34;78.31
84382;BME280;74572;51.834;5.820;2024-01-30T03:31:51;102585.56;;;7.44;77.72
84382;BME280;74572;51.834;5.820;2024-01-30T03:34:17;102568.16;;;7.47;77.58
84382;BME280;74572;51.834;5.820;2024-01-30T03:36:42;102574.84;;;7.47;78.06
84382;BME280;74572;51.834;5.820;2024-01-30T03:39:08;102568.75;;;7.45;78.06
84382;BME280;74572;51.834;5.820;2024-01-30T03:41:33;102562.94;;;7.37;77.94
84382;BME280;74572;51.834;5.820;2024-01-30T03:43:59;102562.34;;;7.40;77.69
84382;BME280;74572;51.834;5.820;2024-01-30T03:46:24;102562.50;;;7.41;77.96
84382;BME280;74572;51.834;5.820;2024-01-30T03:48:50;102547.00;;;7.38;78.13
84382;BME280;74572;51.834;5.820;2024-01-30T03:51:15;102543.44;;;7.36;78.18
84382;BME280;74572;51.834;5.820;2024-01-30T03:53:44;102546.88;;;7.37;78.03
84382;BME280;74572;51.834;5.820;2024-01-30T03:56:13;102541.19;;;7.39;77.83
84382;BME280;74572;51.834;5.820;2024-01-30T03:58:40;102544.19;;;7.35;77.72
84382;BME280;74572;51.834;5.820;2024-01-30T04:01:06;102552.13;;;7.30;78.28
84382;BME280;74572;51.834;5.820;2024-01-30T04:03:33;102553.47;;;7.26;78.10
84382;BME280;74572;51.834;5.820;2024-01-30T04:05:58;102559.44;;;7.26;78.32
84382;BME280;74572;51.834;5.820;2024-01-30T04:08:27;102563.13;;;7.30;78.37
84382;BME280;74572;51.834;5.820;2024-01-30T04:10:52;102564.28;;;7.34;78.24
84382;BME280;74572;51.834;5.820;2024-01-30T04:13:18;102572.63;;;7.33;77.87
84382;BME280;74572;51.834;5.820;2024-01-30T04:15:44;102563.13;;;7.30;78.42
84382;BME280;74572;51.834;5.820;2024-01-30T04:18:10;102572.78;;;7.34;78.15
84382;BME280;74572;51.834;5.820;2024-01-30T04:20:35;102576.81;;;7.32;78.03
84382;BME280;74572;51.834;5.820;2024-01-30T04:23:03;102582.66;;;7.31;77.70
84382;BME280;74572;51.834;5.820;2024-01-30T04:25:28;102578.78;;;7.26;78.23
84382;BME280;74572;51.834;5.820;2024-01-30T04:27:54;102579.81;;;7.28;78.49
84382;BME280;74572;51.834;5.820;2024-01-30T04:30:19;102571.19;;;7.26;78.38
84382;BME280;74572;51.834;5.820;2024-01-30T04:32:45;102571.63;;;7.22;78.25
84382;BME280;74572;51.834;5.820;2024-01-30T04:35:10;102566.72;;;7.23;78.55
84382;BME280;74572;51.834;5.820;2024-01-30T04:37:37;102561.66;;;7.23;78.04
84382;BME280;74572;51.834;5.820;2024-01-30T04:40:02;102554.97;;;7.24;78.45
84382;BME280;74572;51.834;5.820;2024-01-30T04:42:28;102556.00;;;7.26;78.65
84382;BME280;74572;51.834;5.820;2024-01-30T04:44:53;102557.94;;;7.28;78.53
84382;BME280;74572;51.834;5.820;2024-01-30T04:47:19;102558.06;;;7.30;78.35
84382;BME280;74572;51.834;5.820;2024-01-30T04:49:44;102553.03;;;7.30;78.33
84382;BME280;74572;51.834;5.820;2024-01-30T04:52:09;102548.97;;;7.32;78.45
84382;BME280;74572;51.834;5.820;2024-01-30T04:54:36;102541.50;;;7.34;78.08
84382;BME280;74572;51.834;5.820;2024-01-30T04:57:02;102537.50;;;7.36;78.36
84382;BME280;74572;51.834;5.820;2024-01-30T04:59:28;102539.72;;;7.41;78.08
84382;BME280;74572;51.834;5.820;2024-01-30T05:01:54;102534.94;;;7.44;78.26
84382;BME280;74572;51.834;5.820;2024-01-30T05:04:19;102544.91;;;7.43;78.02
84382;BME280;74572;51.834;5.820;2024-01-30T05:06:45;102535.69;;;7.43;78.01
84382;BME280;74572;51.834;5.820;2024-01-30T05:09:12;102532.25;;;7.43;78.18
84382;BME280;74572;51.834;5.820;2024-01-30T05:11:39;102533.44;;;7.46;78.17
84382;BME280;74572;51.834;5.820;2024-01-30T05:14:07;102530.16;;;7.47;77.94
84382;BME280;74572;51.834;5.820;2024-01-30T05:16:34;102537.00;;;7.48;78.13
84382;BME280;74572;51.834;5.820;2024-01-30T05:18:59;102531.06;;;7.48;78.14
84382;BME280;74572;51.834;5.820;2024-01-30T05:21:25;102532.19;;;7.51;78.21
84382;BME280;74572;51.834;5.820;2024-01-30T05:23:50;102533.72;;;7.49;78.20
84382;BME280;74572;51.834;5.820;2024-01-30T05:26:16;102541.44;;;7.51;78.47
84382;BME280;74572;51.834;5.820;2024-01-30T05:28:42;102541.19;;;7.48;78.39
84382;BME280;74572;51.834;5.820;2024-01-30T05:31:09;102537.28;;;7.51;78.20
84382;BME280;74572;51.834;5.820;2024-01-30T05:33:35;102546.94;;;7.55;77.88
84382;BME280;74572;51.834;5.820;2024-01-30T05:36:00;102546.47;;;7.59;78.08
84382;BME280;74572;51.834;5.820;2024-01-30T05:38:26;102545.88;;;7.62;77.78
84382;BME280;74572;51.834;5.820;2024-01-30T05:40:52;102541.72;;;7.62;78.18
84382;BME280;74572;51.834;5.820;2024-01-30T05:43:17;102543.78;;;7.67;77.90
84382;BME280;74572;51.834;5.820;2024-01-30T05:45:43;102549.13;;;7.70;78.49
84382;BME280;74572;51.834;5.820;2024-01-30T05:48:08;102546.59;;;7.70;77.69
84382;BME280;74572;51.834;5.820;2024-01-30T05:50:34;102542.69;;;7.73;77.73
84382;BME280;74572;51.834;5.820;2024-01-30T05:53:00;102538.50;;;7.74;78.28
84382;BME280;74572;51.834;5.820;2024-01-30T05:55:25;102532.69;;;7.75;78.01
84382;BME280;74572;51.834;5.820;2024-01-30T05:57:51;102531.19;;;7.77;78.29
84382;BME280;74572;51.834;5.820;2024-01-30T06:00:18;102538.94;;;7.78;77.93
84382;BME280;74572;51.834;5.820;2024-01-30T06:02:43;102540.72;;;7.79;77.93
84382;BME280;74572;51.834;5.820;2024-01-30T06:05:09;102542.50;;;7.80;77.89
84382;BME280;74572;51.834;5.820;2024-01-30T06:07:34;102542.50;;;7.80;78.14
84382;BME280;74572;51.834;5.820;2024-01-30T06:09:59;102539.97;;;7.80;77.91
84382;BME280;74572;51.834;5.820;2024-01-30T06:12:27;102539.22;;;7.81;78.06
84382;BME280;74572;51.834;5.820;2024-01-30T06:14:53;102538.34;;;7.81;78.14
84382;BME280;74572;51.834;5.820;2024-01-30T06:17:22;102530.28;;;7.85;78.22
84382;BME280;74572;51.834;5.820;2024-01-30T06:19:48;102542.94;;;7.85;78.23
84382;BME280;74572;51.834;5.820;2024-01-30T06:22:13;102543.97;;;7.87;78.04
84382;BME280;74572;51.834;5.820;2024-01-30T06:24:39;102545.13;;;7.90;78.44
84382;BME280;74572;51.834;5.820;2024-01-30T06:27:04;102544.66;;;7.94;78.22
84382;BME280;74572;51.834;5.820;2024-01-30T06:29:30;102536.44;;;7.97;77.88
84382;BME280;74572;51.834;5.820;2024-01-30T06:31:56;102541.78;;;8.00;77.78
84382;BME280;74572;51.834;5.820;2024-01-30T06:34:22;102552.22;;;8.03;77.99
84382;BME280;74572;51.834;5.820;2024-01-30T06:36:47;102552.66;;;8.08;77.76
84382;BME280;74572;51.834;5.820;2024-01-30T06:39:13;102552.00;;;8.10;77.63
84382;BME280;74572;51.834;5.820;2024-01-30T06:41:38;102549.31;;;8.09;77.81
84382;BME280;74572;51.834;5.820;2024-01-30T06:44:04;102555.56;;;8.12;77.94
84382;BME280;74572;51.834;5.820;2024-01-30T06:46:31;102551.53;;;8.14;78.12
84382;BME280;74572;51.834;5.820;2024-01-30T06:48:57;102552.56;;;8.16;77.99
84382;BME280;74572;51.834;5.820;2024-01-30T06:51:23;102550.03;;;8.16;77.48
84382;BME280;74572;51.834;5.820;2024-01-30T06:53:49;102544.22;;;8.17;77.94
84382;BME280;74572;51.834;5.820;2024-01-30T06:56:15;102550.03;;;8.16;77.57
84382;BME280;74572;51.834;5.820;2024-01-30T06:58:46;102555.09;;;8.16;78.14
84382;BME280;74572;51.834;5.820;2024-01-30T07:01:11;102556.13;;;8.18;78.06
84382;BME280;74572;51.834;5.820;2024-01-30T07:03:37;102556.28;;;8.20;77.74
84382;BME280;74572;51.834;5.820;2024-01-30T07:06:02;102565.19;;;8.25;78.17
84382;BME280;74572;51.834;5.820;2024-01-30T07:08:29;102563.06;;;8.29;77.69
84382;BME280;74572;51.834;5.820;2024-01-30T07:10:54;102564.84;;;8.30;78.02
84382;BME280;74572;51.834;5.820;2024-01-30T07:13:20;102565.16;;;8.34;77.81
84382;BME280;74572;51.834;5.820;2024-01-30T07:15:46;102566.94;;;8.35;77.67
84382;BME280;74572;51.834;5.820;2024-01-30T07:18:11;102570.97;;;8.32;77.64
84382;BME280;74572;51.834;5.820;2024-01-30T07:20:38;102574.22;;;8.31;78.08
84382;BME280;74572;51.834;5.820;2024-01-30T07:23:12;102583.66;;;8.32;78.24
84382;BME280;74572;51.834;5.820;2024-01-30T07:25:40;102581.13;;;8.32;78.06
84382;BME280;74572;51.834;5.820;2024-01-30T07:28:07;102589.63;;;8.33;78.10
84382;BME280;74572;51.834;5.820;2024-01-30T07:30:33;102586.19;;;8.32;77.92
84382;BME280;74572;51.834;5.820;2024-01-30T07:32:59;102593.03;;;8.34;78.06
84382;BME280;74572;51.834;5.820;2024-01-30T07:35:24;102589.91;;;8.36;78.11
84382;BME280;74572;51.834;5.820;2024-01-30T07:37:50;102589.28;;;8.39;77.46
84382;BME280;74572;51.834;5.820;2024-01-30T07:40:15;102588.41;;;8.38;77.80
84382;BME280;74572;51.834;5.820;2024-01-30T07:42:42;102594.34;;;8.39;77.57
84382;BME280;74572;51.834;5.820;2024-01-30T07:45:07;102591.06;;;8.40;77.43
84382;BME280;74572;51.834;5.820;2024-01-30T07:47:33;102591.22;;;8.41;78.13
84382;BME280;74572;51.834;5.820;2024-01-30T07:49:58;102591.34;;;8.43;78.08
84382;BME280;74572;51.834;5.820;2024-01-30T07:52:24;102589.09;;;8.46;78.17
84382;BME280;74572;51.834;5.820;2024-01-30T07:54:51;102602.78;;;8.48;77.93
84382;BME280;74572;51.834;5.820;2024-01-30T07:57:17;102605.47;;;8.49;77.69
84382;BME280;74572;51.834;5.820;2024-01-30T07:59:44;102608.41;;;8.54;77.80
84382;BME280;74572;51.834;5.820;2024-01-30T08:02:10;102616.31;;;8.57;77.99
84382;BME280;74572;51.834;5.820;2024-01-30T08:04:35;102610.63;;;8.59;77.79
84382;BME280;74572;51.834;5.820;2024-01-30T08:07:01;102613.56;;;8.64;77.95
84382;BME280;74572;51.834;5.820;2024-01-30T08:09:28;102615.88;;;8.71;77.62
84382;BME280;74572;51.834;5.820;2024-01-30T08:11:53;102609.59;;;8.76;77.41
84382;BME280;74572;51.834;5.820;2024-01-30T08:14:19;102618.78;;;8.84;77.74
84382;BME280;74572;51.834;5.820;2024-01-30T08:16:44;102623.50;;;8.90;77.60
84382;BME280;74572;51.834;5.820;2024-01-30T08:19:10;102623.91;;;8.94;77.16
84382;BME280;74572;51.834;5.820;2024-01-30T08:21:35;102637.16;;;9.00;77.18
84382;BME280;74572;51.834;5.820;2024-01-30T08:24:05;102635.00;;;9.05;77.41
84382;BME280;74572;51.834;5.820;2024-01-30T08:26:34;102632.88;;;9.10;76.99
84382;BME280;74572;51.834;5.820;2024-01-30T08:29:01;102640.28;;;9.17;77.18
84382;BME280;74572;51.834;5.820;2024-01-30T08:31:26;102633.97;;;9.22;77.13
84382;BME280;74572;51.834;5.820;2024-01-30T08:33:51;102639.28;;;9.25;76.59
84382;BME280;74572;51.834;5.820;2024-01-30T08:36:17;102626.84;;;9.28;76.81
84382;BME280;74572;51.834;5.820;2024-01-30T08:38:43;102623.69;;;9.30;76.89
84382;BME280;74572;51.834;5.820;2024-01-30T08:41:09;102624.59;;;9.31;76.82
84382;BME280;74572;51.834;5.820;2024-01-30T08:43:35;102623.34;;;9.36;76.47
84382;BME280;74572;51.834;5.820;2024-01-30T08:46:01;102623.91;;;9.42;76.65
84382;BME280;74572;51.834;5.820;2024-01-30T08:48:28;102627.69;;;9.47;76.07
84382;BME280;74572;51.834;5.820;2024-01-30T08:50:54;102616.28;;;9.52;76.30
84382;BME280;74572;51.834;5.820;2024-01-30T08:53:20;102619.25;;;9.57;76.46
84382;BME280;74572;51.834;5.820;2024-01-30T08:55:45;102624.81;;;9.63;75.96
84382;BME280;74572;51.834;5.820;2024-01-30T08:58:12;102618.75;;;9.71;75.94
84382;BME280;74572;51.834;5.820;2024-01-30T09:00:37;102619.66;;;9.82;75.33
84382;BME280;74572;51.834;5.820;2024-01-30T09:03:04;102611.19;;;9.91;75.47
84382;BME280;74572;51.834;5.820;2024-01-30T09:05:30;102621.13;;;9.98;74.84
84382;BME280;74572;51.834;5.820;2024-01-30T09:07:55;102620.47;;;10.01;75.36
84382;BME280;74572;51.834;5.820;2024-01-30T09:10:21;102626.44;;;10.01;75.18
84382;BME280;74572;51.834;5.820;2024-01-30T09:12:47;102616.25;;;10.01;75.34
84382;BME280;74572;51.834;5.820;2024-01-30T09:15:14;102620.72;;;10.04;75.19
84382;BME280;74572;51.834;5.820;2024-01-30T09:17:39;102626.34;;;10.10;75.21
84382;BME280;74572;51.834;5.820;2024-01-30T09:20:05;102633.97;;;10.10;75.39
84382;BME280;74572;51.834;5.820;2024-01-30T09:22:31;102629.75;;;10.11;75.59
84382;BME280;74572;51.834;5.820;2024-01-30T09:24:57;102630.41;;;10.18;75.15
84382;BME280;74572;51.834;5.820;2024-01-30T09:27:23;102637.81;;;10.25;75.33
84382;BME280;74572;51.834;5.820;2024-01-30T09:29:49;102633.00;;;10.28;74.66
84382;BME280;74572;51.834;5.820;2024-01-30T09:32:15;102635.66;;;10.30;74.80
84382;BME280;74572;51.834;5.820;2024-01-30T09:34:40;102641.00;;;10.33;75.15
84382;BME280;74572;51.834;5.820;2024-01-30T09:37:07;102641.91;;;10.33;75.04
84382;BME280;74572;51.834;5.820;2024-01-30T09:39:34;102644.19;;;10.30;75.21
84382;BME280;74572;51.834;5.820;2024-01-30T09:44:29;102646.34;;;10.36;74.94
84382;BME280;74572;51.834;5.820;2024-01-30T09:46:55;102650.41;;;10.44;74.67
84382;BME280;74572;51.834;5.820;2024-01-30T09:49:20;102652.97;;;10.44;74.91
84382;BME280;74572;51.834;5.820;2024-01-30T09:51:51;102647.75;;;10.43;75.28
84382;BME280;74572;51.834;5.820;2024-01-30T09:54:17;102653.38;;;10.38;75.13
84382;BME280;74572;51.834;5.820;2024-01-30T09:56:44;102643.28;;;10.40;74.97
84382;BME280;74572;51.834;5.820;2024-01-30T09:59:10;102640.88;;;10.52;75.15
84382;BME280;74572;51.834;5.820;2024-01-30T10:01:36;102640.34;;;10.66;74.66
84382;BME280;74572;51.834;5.820;2024-01-30T10:04:01;102639.06;;;10.81;74.32
84382;BME280;74572;51.834;5.820;2024-01-30T10:06:27;102642.06;;;10.97;73.80
84382;BME280;74572;51.834;5.820;2024-01-30T10:08:53;102644.69;;;11.19;73.58
84382;BME280;74572;51.834;5.820;2024-01-30T10:11:18;102641.31;;;11.40;73.10
84382;BME280;74572;51.834;5.820;2024-01-30T10:13:44;102647.28;;;11.41;72.63
84382;BME280;74572;51.834;5.820;2024-01-30T10:16:09;102653.44;;;11.33;73.46
84382;BME280;74572;51.834;5.820;2024-01-30T10:18:35;102654.50;;;11.25;73.10
84382;BME280;74572;51.834;5.820;2024-01-30T10:21:00;102654.25;;;11.22;73.28
84382;BME280;74572;51.834;5.820;2024-01-30T10:23:26;102652.19;;;11.18;73.43
84382;BME280;74572;51.834;5.820;2024-01-30T10:25:52;102668.16;;;11.15;73.59
84382;BME280;74572;51.834;5.820;2024-01-30T10:28:17;102667.28;;;11.15;73.80
84382;BME280;74572;51.834;5.820;2024-01-30T10:30:43;102667.91;;;11.12;73.97
84382;BME280;74572;51.834;5.820;2024-01-30T10:33:08;102663.19;;;11.06;74.29
84382;BME280;74572;51.834;5.820;2024-01-30T10:35:35;102655.69;;;10.98;74.63
84382;BME280;74572;51.834;5.820;2024-01-30T10:38:00;102657.63;;;10.90;74.48
84382;BME280;74572;51.834;5.820;2024-01-30T10:40:29;102660.94;;;10.89;74.60
84382;BME280;74572;51.834;5.820;2024-01-30T10:42:55;102652.94;;;10.85;74.50
84382;BME280;74572;51.834;5.820;2024-01-30T10:45:22;102652.28;;;10.87;74.64
84382;BME280;74572;51.834;5.820;2024-01-30T10:47:54;102659.81;;;10.96;74.50
84382;BME280;74572;51.834;5.820;2024-01-30T10:50:24;102665.22;;;11.11;74.23
84382;BME280;74572;51.834;5.820;2024-01-30T10:52:50;102659.06;;;11.29;73.89
84382;BME280;74572;51.834;5.820;2024-01-30T10:55:18;102655.91;;;11.53;73.28
84382;BME280;74572;51.834;5.820;2024-01-30T10:57:43;102652.00;;;11.68;73.03
84382;BME280;74572;51.834;5.820;2024-01-30T11:00:11;102660.34;;;11.88;72.55
84382;BME280;74572;51.834;5.820;2024-01-30T11:02:43;102660.53;;;12.01;72.30
84382;BME280;74572;51.834;5.820;2024-01-30T11:05:10;102653.41;;;11.97;72.39
84382;BME280;74572;51.834;5.820;2024-01-30T11:07:39;102656.72;;;11.96;72.33
84382;BME280;74572;51.834;5.820;2024-01-30T11:10:05;102652.09;;;12.02;71.64
84382;BME280;74572;51.834;5.820;2024-01-30T11:12:38;102646.63;;;12.19;71.16
84382;BME280;74572;51.834;5.820;2024-01-30T11:15:13;102650.81;;;12.52;70.42
84382;BME280;74572;51.834;5.820;2024-01-30T11:17:52;102657.88;;;12.78;69.20
84382;BME280;74572;51.834;5.820;2024-01-30T11:20:30;102665.75;;;12.81;69.56
84382;BME280;74572;51.834;5.820;2024-01-30T11:23:01;102656.41;;;12.93;68.72
84382;BME280;74572;51.834;5.820;2024-01-30T11:25:31;102655.22;;;12.88;68.87
84382;BME280;74572;51.834;5.820;2024-01-30T11:27:57;102663.66;;;12.87;69.00
84382;BME280;74572;51.834;5.820;2024-01-30T11:30:28;102658.09;;;12.81;68.16
84382;BME280;74572;51.834;5.820;2024-01-30T11:33:04;102652.88;;;12.79;68.60
84382;BME280;74572;51.834;5.820;2024-01-30T11:38:08;102643.78;;;13.06;67.63
84382;BME280;74572;51.834;5.820;2024-01-30T11:40:34;102652.16;;;13.27;67.30
84382;BME280;74572;51.834;5.820;2024-01-30T11:43:02;102641.00;;;13.38;66.80
84382;BME280;74572;51.834;5.820;2024-01-30T11:45:30;102644.22;;;13.36;67.01
84382;BME280;74572;51.834;5.820;2024-01-30T11:47:56;102644.41;;;13.51;66.54
84382;BME280;74572;51.834;5.820;2024-01-30T11:50:21;102649.13;;;13.44;66.14
84382;BME280;74572;51.834;5.820;2024-01-30T11:52:48;102643.13;;;13.44;66.22
84382;BME280;74572;51.834;5.820;2024-01-30T11:55:14;102654.31;;;13.58;65.59
84382;BME280;74572;51.834;5.820;2024-01-30T11:57:41;102647.88;;;13.51;65.28
84382;BME280;74572;51.834;5.820;2024-01-30T12:00:14;102651.66;;;13.33;65.82
84382;BME280;74572;51.834;5.820;2024-01-30T12:02:40;102658.38;;;13.19;66.08
84382;BME280;74572;51.834;5.820;2024-01-30T12:05:06;102659.44;;;12.99;65.58
84382;BME280;74572;51.834;5.820;2024-01-30T12:07:33;102657.78;;;12.88;65.29
84382;BME280;74572;51.834;5.820;2024-01-30T12:09:58;102671.16;;;12.74;66.12
84382;BME280;74572;51.834;5.820;2024-01-30T12:12:25;102656.72;;;12.63;66.16
84382;BME280;74572;51.834;5.820;2024-01-30T12:14:51;102659.81;;;12.59;66.28
84382;BME280;74572;51.834;5.820;2024-01-30T12:17:31;102660.59;;;12.58;66.43
84382;BME280;74572;51.834;5.820;2024-01-30T12:20:13;102654.41;;;12.66;66.13
84382;BME280;74572;51.834;5.820;2024-01-30T12:22:42;102650.19;;;12.66;66.26
84382;BME280;74572;51.834;5.820;2024-01-30T12:25:09;102664.91;;;12.47;66.54
84382;BME280;74572;51.834;5.820;2024-01-30T12:27:35;102669.97;;;12.35;67.11
84382;BME280;74572;51.834;5.820;2024-01-30T12:30:01;102668.50;;;12.27;67.08
84382;BME280;74572;51.834;5.820;2024-01-30T12:32:30;102675.44;;;12.18;66.95
84382;BME280;74572;51.834;5.820;2024-01-30T12:34:56;102675.22;;;12.15;66.20
84382;BME280;74572;51.834;5.820;2024-01-30T12:37:24;102682.09;;;12.16;65.99
84382;BME280;74572;51.834;5.820;2024-01-30T12:39:51;102686.91;;;12.23;65.46
84382;BME280;74572;51.834;5.820;2024-01-30T12:42:19;102687.28;;;12.28;65.36
84382;BME280;74572;51.834;5.820;2024-01-30T12:44:47;102680.25;;;12.25;64.36
84382;BME280;74572;51.834;5.820;2024-01-30T12:47:12;102679.94;;;12.32;64.32
84382;BME280;74572;51.834;5.820;2024-01-30T12:49:38;102688.53;;;12.44;63.89
84382;BME280;74572;51.834;5.820;2024-01-30T12:52:03;102700.88;;;12.50;62.64
84382;BME280;74572;51.834;5.820;2024-01-30T12:54:29;102694.09;;;12.84;62.39
84382;BME280;74572;51.834;5.820;2024-01-30T12:56:55;102696.75;;;12.97;61.76
84382;BME280;74572;51.834;5.820;2024-01-30T12:59:22;102698.00;;;13.02;61.36